sensor_id;sensor_type;location;lat;lon;timestamp;temperature;humidity
28608;DHT22;15802;45.654;13.804;2022-11-20T00:02:20;8.40;99.90
28608;DHT22;15802;45.654;13.804;2022-11-20T00:04:46;8.40;99.90
28608;DHT22;15802;45.654;13.804;2022-11-20T00:07:11;8.40;99.90
28608;DHT22;15802;45.654;13.804;2022-11-20T00:09:37;8.40;99.90
28608;DHT22;15802;45.654;13.804;2022-11-20T00:12:03;8.30;99.90
28608;DHT22;15802;45.654;13.804;2022-11-20T00:14:29;8.30;99.90
28608;DHT22;15802;45.654;13.804;2022-11-20T00:16:54;8.30;99.90
28608;DHT22;15802;45.654;13.804;2022-11-20T00:19:20;8.30;99.90
28608;DHT22;15802;45.654;13.804;2022-11-20T00:21:46;8.30;99.90
28608;DHT22;15802;45.654;13.804;2022-11-20T00:24:12;8.30;99.90
28608;DHT22;15802;45.654;13.804;2022-11-20T00:26:38;8.30;99.90
28608;DHT22;15802;45.654;13.804;2022-11-20T00:29:03;8.20;99.90
28608;DHT22;15802;45.654;13.804;2022-11-20T00:31:29;8.30;99.90
28608;DHT22;15802;45.654;13.804;2022-11-20T00:33:56;8.30;99.90
28608;DHT22;15802;45.654;13.804;2022-11-20T00:36:22;8.20;99.90
28608;DHT22;15802;45.654;13.804;2022-11-20T00:38:52;8.10;99.90
28608;DHT22;15802;45.654;13.804;2022-11-20T00:41:18;8.10;99.90
28608;DHT22;15802;45.654;13.804;2022-11-20T00:43:44;8.10;99.90
28608;DHT22;15802;45.654;13.804;2022-11-20T00:46:12;8.00;99.90
28608;DHT22;15802;45.654;13.804;2022-11-20T00:48:38;7.90;99.90
28608;DHT22;15802;45.654;13.804;2022-11-20T00:51:04;7.80;99.90
28608;DHT22;15802;45.654;13.804;2022-11-20T00:53:30;7.70;99.90
28608;DHT22;15802;45.654;13.804;2022-11-20T00:55:56;7.80;99.90
28608;DHT22;15802;45.654;13.804;2022-11-20T00:58:22;7.80;99.90
28608;DHT22;15802;45.654;13.804;2022-11-20T01:00:48;7.90;99.90
28608;DHT22;15802;45.654;13.804;2022-11-20T01:03:15;8.00;99.90
28608;DHT22;15802;45.654;13.804;2022-11-20T01:05:41;7.90;99.90
28608;DHT22;15802;45.654;13.804;2022-11-20T01:08:07;7.90;99.90
28608;DHT22;15802;45.654;13.804;2022-11-20T01:10:33;7.80;99.90
28608;DHT22;15802;45.654;13.804;2022-11-20T01:12:59;7.80;99.90
28608;DHT22;15802;45.654;13.804;2022-11-20T01:15:43;7.70;99.90
28608;DHT22;15802;45.654;13.804;2022-11-20T01:18:09;7.60;99.90
28608;DHT22;15802;45.654;13.804;2022-11-20T01:20:35;7.70;99.90
28608;DHT22;15802;45.654;13.804;2022-11-20T01:23:01;7.70;99.90
28608;DHT22;15802;45.654;13.804;2022-11-20T01:25:29;7.70;99.90
28608;DHT22;15802;45.654;13.804;2022-11-20T01:27:55;7.70;99.90
28608;DHT22;15802;45.654;13.804;2022-11-20T01:30:21;7.70;99.90
28608;DHT22;15802;45.654;13.804;2022-11-20T01:32:47;7.80;99.90
28608;DHT22;15802;45.654;13.804;2022-11-20T01:35:13;7.70;99.90
28608;DHT22;15802;45.654;13.804;2022-11-20T01:37:38;7.80;99.90
28608;DHT22;15802;45.654;13.804;2022-11-20T01:40:04;7.80;99.90
28608;DHT22;15802;45.654;13.804;2022-11-20T01:42:30;7.80;99.90
28608;DHT22;15802;45.654;13.804;2022-11-20T01:47:59;7.80;99.90
28608;DHT22;15802;45.654;13.804;2022-11-20T01:50:26;7.80;99.90
28608;DHT22;15802;45.654;13.804;2022-11-20T01:52:56;7.90;99.90
28608;DHT22;15802;45.654;13.804;2022-11-20T01:55:25;8.00;99.90
28608;DHT22;15802;45.654;13.804;2022-11-20T01:57:52;8.00;99.90
28608;DHT22;15802;45.654;13.804;2022-11-20T02:00:19;8.00;99.90
28608;DHT22;15802;45.654;13.804;2022-11-20T02:02:47;8.00;99.90
28608;DHT22;15802;45.654;13.804;2022-11-20T02:05:16;8.00;99.90
28608;DHT22;15802;45.654;13.804;2022-11-20T02:07:44;8.00;99.90
28608;DHT22;15802;45.654;13.804;2022-11-20T02:10:09;8.00;99.90
28608;DHT22;15802;45.654;13.804;2022-11-20T02:12:36;8.10;99.90
28608;DHT22;15802;45.654;13.804;2022-11-20T02:15:20;8.00;99.90
28608;DHT22;15802;45.654;13.804;2022-11-20T02:17:46;7.90;99.90
28608;DHT22;15802;45.654;13.804;2022-11-20T02:20:12;7.90;99.90
28608;DHT22;15802;45.654;13.804;2022-11-20T02:22:42;7.90;99.90
28608;DHT22;15802;45.654;13.804;2022-11-20T02:25:13;7.80;99.90
28608;DHT22;15802;45.654;13.804;2022-11-20T02:27:40;7.90;99.90
28608;DHT22;15802;45.654;13.804;2022-11-20T02:30:06;7.90;99.90
28608;DHT22;15802;45.654;13.804;2022-11-20T02:32:34;7.90;99.90
28608;DHT22;15802;45.654;13.804;2022-11-20T02:35:35;8.00;99.90
28608;DHT22;15802;45.654;13.804;2022-11-20T02:37:54;7.90;99.90
28608;DHT22;15802;45.654;13.804;2022-11-20T02:40:20;7.80;99.90
28608;DHT22;15802;45.654;13.804;2022-11-20T02:42:46;7.90;99.90
28608;DHT22;15802;45.654;13.804;2022-11-20T02:45:11;7.80;99.90
28608;DHT22;15802;45.654;13.804;2022-11-20T02:47:37;7.90;99.90
28608;DHT22;15802;45.654;13.804;2022-11-20T02:50:03;7.90;99.90
28608;DHT22;15802;45.654;13.804;2022-11-20T02:52:29;7.80;99.90
28608;DHT22;15802;45.654;13.804;2022-11-20T02:54:55;7.90;99.90
28608;DHT22;15802;45.654;13.804;2022-11-20T02:57:21;7.90;99.90
28608;DHT22;15802;45.654;13.804;2022-11-20T02:59:46;7.90;99.90
28608;DHT22;15802;45.654;13.804;2022-11-20T03:02:12;7.90;99.90
28608;DHT22;15802;45.654;13.804;2022-11-20T03:04:38;7.90;99.90
28608;DHT22;15802;45.654;13.804;2022-11-20T03:07:04;7.90;99.90
28608;DHT22;15802;45.654;13.804;2022-11-20T03:09:30;7.80;99.90
28608;DHT22;15802;45.654;13.804;2022-11-20T03:11:56;7.80;99.90
28608;DHT22;15802;45.654;13.804;2022-11-20T03:14:21;7.80;99.90
28608;DHT22;15802;45.654;13.804;2022-11-20T03:16:47;7.80;99.90
28608;DHT22;15802;45.654;13.804;2022-11-20T03:19:13;7.90;99.90
28608;DHT22;15802;45.654;13.804;2022-11-20T03:21:38;7.90;99.90
28608;DHT22;15802;45.654;13.804;2022-11-20T03:24:04;8.00;99.90
28608;DHT22;15802;45.654;13.804;2022-11-20T03:26:30;7.90;99.90
28608;DHT22;15802;45.654;13.804;2022-11-20T03:28:57;7.90;99.90
28608;DHT22;15802;45.654;13.804;2022-11-20T03:31:24;8.00;99.90
28608;DHT22;15802;45.654;13.804;2022-11-20T03:33:50;8.10;99.90
28608;DHT22;15802;45.654;13.804;2022-11-20T03:36:17;8.20;99.90
28608;DHT22;15802;45.654;13.804;2022-11-20T03:38:43;8.20;99.90
28608;DHT22;15802;45.654;13.804;2022-11-20T03:41:10;8.30;99.90
28608;DHT22;15802;45.654;13.804;2022-11-20T03:43:36;8.30;99.90
28608;DHT22;15802;45.654;13.804;2022-11-20T03:46:02;8.50;99.90
28608;DHT22;15802;45.654;13.804;2022-11-20T03:48:28;8.40;99.90
28608;DHT22;15802;45.654;13.804;2022-11-20T03:51:06;8.50;99.90
28608;DHT22;15802;45.654;13.804;2022-11-20T03:53:32;8.50;99.90
28608;DHT22;15802;45.654;13.804;2022-11-20T03:55:57;8.60;99.90
28608;DHT22;15802;45.654;13.804;2022-11-20T03:58:23;8.70;99.90
28608;DHT22;15802;45.654;13.804;2022-11-20T04:00:49;8.70;99.90
28608;DHT22;15802;45.654;13.804;2022-11-20T04:03:14;8.70;99.90
28608;DHT22;15802;45.654;13.804;2022-11-20T04:05:40;8.70;99.90
28608;DHT22;15802;45.654;13.804;2022-11-20T04:08:06;8.80;99.90
28608;DHT22;15802;45.654;13.804;2022-11-20T04:10:31;8.80;99.90
28608;DHT22;15802;45.654;13.804;2022-11-20T04:12:57;8.90;99.90
28608;DHT22;15802;45.654;13.804;2022-11-20T04:15:23;8.90;99.90
28608;DHT22;15802;45.654;13.804;2022-11-20T04:17:48;8.90;99.90
28608;DHT22;15802;45.654;13.804;2022-11-20T04:20:14;8.90;99.90
28608;DHT22;15802;45.654;13.804;2022-11-20T04:22:40;8.80;99.90
28608;DHT22;15802;45.654;13.804;2022-11-20T04:25:05;8.80;99.90
28608;DHT22;15802;45.654;13.804;2022-11-20T04:27:31;8.80;99.90
28608;DHT22;15802;45.654;13.804;2022-11-20T04:29:57;8.90;99.90
28608;DHT22;15802;45.654;13.804;2022-11-20T04:32:23;8.90;99.90
28608;DHT22;15802;45.654;13.804;2022-11-20T04:34:48;8.90;99.90
28608;DHT22;15802;45.654;13.804;2022-11-20T04:37:14;8.90;99.90
28608;DHT22;15802;45.654;13.804;2022-11-20T04:39:40;9.00;99.90
28608;DHT22;15802;45.654;13.804;2022-11-20T04:42:05;9.00;99.90
28608;DHT22;15802;45.654;13.804;2022-11-20T04:44:50;9.00;99.90
28608;DHT22;15802;45.654;13.804;2022-11-20T04:47:16;9.00;99.90
28608;DHT22;15802;45.654;13.804;2022-11-20T04:49:42;9.10;99.90
28608;DHT22;15802;45.654;13.804;2022-11-20T04:52:07;9.10;99.90
28608;DHT22;15802;45.654;13.804;2022-11-20T04:54:33;9.00;99.90
28608;DHT22;15802;45.654;13.804;2022-11-20T04:56:59;9.10;99.90
28608;DHT22;15802;45.654;13.804;2022-11-20T04:59:25;9.10;99.90
28608;DHT22;15802;45.654;13.804;2022-11-20T05:01:51;9.10;99.90
28608;DHT22;15802;45.654;13.804;2022-11-20T05:04:16;9.10;99.90
28608;DHT22;15802;45.654;13.804;2022-11-20T05:06:42;9.20;99.90
28608;DHT22;15802;45.654;13.804;2022-11-20T05:09:08;9.20;99.90
28608;DHT22;15802;45.654;13.804;2022-11-20T05:11:33;9.20;99.90
28608;DHT22;15802;45.654;13.804;2022-11-20T05:13:59;9.20;99.90
28608;DHT22;15802;45.654;13.804;2022-11-20T05:16:25;9.20;99.90
28608;DHT22;15802;45.654;13.804;2022-11-20T05:18:51;9.30;99.90
28608;DHT22;15802;45.654;13.804;2022-11-20T05:21:17;9.30;99.90
28608;DHT22;15802;45.654;13.804;2022-11-20T05:23:44;9.20;99.90
28608;DHT22;15802;45.654;13.804;2022-11-20T05:26:15;9.20;99.90
28608;DHT22;15802;45.654;13.804;2022-11-20T05:28:40;9.20;99.90
28608;DHT22;15802;45.654;13.804;2022-11-20T05:31:07;9.10;99.90
28608;DHT22;15802;45.654;13.804;2022-11-20T05:33:34;9.10;99.90
28608;DHT22;15802;45.654;13.804;2022-11-20T05:36:00;9.10;99.90
28608;DHT22;15802;45.654;13.804;2022-11-20T05:38:26;9.10;99.90
28608;DHT22;15802;45.654;13.804;2022-11-20T05:40:51;9.10;99.90
28608;DHT22;15802;45.654;13.804;2022-11-20T05:43:17;9.20;99.90
28608;DHT22;15802;45.654;13.804;2022-11-20T05:45:50;9.30;99.90
28608;DHT22;15802;45.654;13.804;2022-11-20T05:48:16;9.30;99.90
28608;DHT22;15802;45.654;13.804;2022-11-20T05:50:42;9.40;99.90
28608;DHT22;15802;45.654;13.804;2022-11-20T05:53:08;9.40;99.90
28608;DHT22;15802;45.654;13.804;2022-11-20T05:55:33;9.40;99.90
28608;DHT22;15802;45.654;13.804;2022-11-20T05:57:59;9.40;99.90
28608;DHT22;15802;45.654;13.804;2022-11-20T06:00:25;9.40;99.90
28608;DHT22;15802;45.654;13.804;2022-11-20T06:02:51;9.40;99.90
28608;DHT22;15802;45.654;13.804;2022-11-20T06:05:17;9.40;99.90
28608;DHT22;15802;45.654;13.804;2022-11-20T06:07:42;9.40;99.90
28608;DHT22;15802;45.654;13.804;2022-11-20T06:10:08;9.30;99.90
28608;DHT22;15802;45.654;13.804;2022-11-20T06:12:34;9.30;99.90
28608;DHT22;15802;45.654;13.804;2022-11-20T06:15:00;9.30;99.90
28608;DHT22;15802;45.654;13.804;2022-11-20T06:17:26;9.30;99.90
28608;DHT22;15802;45.654;13.804;2022-11-20T06:19:51;9.30;99.90
28608;DHT22;15802;45.654;13.804;2022-11-20T06:22:17;9.30;99.90
28608;DHT22;15802;45.654;13.804;2022-11-20T06:24:43;9.20;99.90
28608;DHT22;15802;45.654;13.804;2022-11-20T06:27:08;9.20;99.90
28608;DHT22;15802;45.654;13.804;2022-11-20T06:29:34;9.10;99.90
28608;DHT22;15802;45.654;13.804;2022-11-20T06:32:00;9.20;99.90
28608;DHT22;15802;45.654;13.804;2022-11-20T06:34:26;9.20;99.90
28608;DHT22;15802;45.654;13.804;2022-11-20T06:36:52;9.20;99.90
28608;DHT22;15802;45.654;13.804;2022-11-20T06:39:18;9.30;99.90
28608;DHT22;15802;45.654;13.804;2022-11-20T06:41:43;9.30;99.90
28608;DHT22;15802;45.654;13.804;2022-11-20T06:44:09;9.30;99.90
28608;DHT22;15802;45.654;13.804;2022-11-20T06:46:35;9.20;99.90
28608;DHT22;15802;45.654;13.804;2022-11-20T06:49:01;9.30;99.90
28608;DHT22;15802;45.654;13.804;2022-11-20T06:51:27;9.30;99.90
28608;DHT22;15802;45.654;13.804;2022-11-20T06:53:52;9.30;99.90
28608;DHT22;15802;45.654;13.804;2022-11-20T06:56:18;9.30;99.90
28608;DHT22;15802;45.654;13.804;2022-11-20T06:58:44;9.20;99.90
28608;DHT22;15802;45.654;13.804;2022-11-20T07:01:11;9.20;99.90
28608;DHT22;15802;45.654;13.804;2022-11-20T07:03:37;9.20;99.90
28608;DHT22;15802;45.654;13.804;2022-11-20T07:06:03;9.20;99.90
28608;DHT22;15802;45.654;13.804;2022-11-20T07:08:29;9.30;99.90
28608;DHT22;15802;45.654;13.804;2022-11-20T07:10:57;9.30;99.90
28608;DHT22;15802;45.654;13.804;2022-11-20T07:13:23;9.40;99.90
28608;DHT22;15802;45.654;13.804;2022-11-20T07:15:48;9.30;99.90
28608;DHT22;15802;45.654;13.804;2022-11-20T07:18:14;9.40;99.90
28608;DHT22;15802;45.654;13.804;2022-11-20T07:20:40;9.40;99.90
28608;DHT22;15802;45.654;13.804;2022-11-20T07:23:06;9.40;99.90
28608;DHT22;15802;45.654;13.804;2022-11-20T07:25:32;9.40;99.90
28608;DHT22;15802;45.654;13.804;2022-11-20T07:27:58;9.40;99.90
28608;DHT22;15802;45.654;13.804;2022-11-20T07:30:24;9.40;99.90
28608;DHT22;15802;45.654;13.804;2022-11-20T07:32:50;9.30;99.90
28608;DHT22;15802;45.654;13.804;2022-11-20T07:35:16;9.40;99.90
28608;DHT22;15802;45.654;13.804;2022-11-20T07:37:42;9.50;99.90
28608;DHT22;15802;45.654;13.804;2022-11-20T07:40:08;9.50;99.90
28608;DHT22;15802;45.654;13.804;2022-11-20T07:42:34;9.50;99.90
28608;DHT22;15802;45.654;13.804;2022-11-20T07:44:59;9.50;99.90
28608;DHT22;15802;45.654;13.804;2022-11-20T07:47:25;9.40;99.90
28608;DHT22;15802;45.654;13.804;2022-11-20T07:49:50;9.40;99.90
28608;DHT22;15802;45.654;13.804;2022-11-20T07:52:16;9.30;99.90
28608;DHT22;15802;45.654;13.804;2022-11-20T07:54:42;9.30;99.90
28608;DHT22;15802;45.654;13.804;2022-11-20T07:57:08;9.40;99.90
28608;DHT22;15802;45.654;13.804;2022-11-20T07:59:34;9.40;99.90
28608;DHT22;15802;45.654;13.804;2022-11-20T08:01:59;9.50;99.90
28608;DHT22;15802;45.654;13.804;2022-11-20T08:04:27;9.40;99.90
28608;DHT22;15802;45.654;13.804;2022-11-20T08:06:53;9.20;99.90
28608;DHT22;15802;45.654;13.804;2022-11-20T08:09:19;9.20;99.90
28608;DHT22;15802;45.654;13.804;2022-11-20T08:11:45;9.10;99.90
28608;DHT22;15802;45.654;13.804;2022-11-20T08:14:29;9.10;99.90
28608;DHT22;15802;45.654;13.804;2022-11-20T08:16:55;9.20;99.90
28608;DHT22;15802;45.654;13.804;2022-11-20T08:19:20;9.20;99.90
28608;DHT22;15802;45.654;13.804;2022-11-20T08:21:46;9.10;99.90
28608;DHT22;15802;45.654;13.804;2022-11-20T08:24:12;9.10;99.90
28608;DHT22;15802;45.654;13.804;2022-11-20T08:26:38;9.00;99.90
28608;DHT22;15802;45.654;13.804;2022-11-20T08:29:05;9.10;99.90
28608;DHT22;15802;45.654;13.804;2022-11-20T08:31:31;9.20;99.90
28608;DHT22;15802;45.654;13.804;2022-11-20T08:33:56;9.20;99.90
28608;DHT22;15802;45.654;13.804;2022-11-20T08:36:23;9.30;99.90
28608;DHT22;15802;45.654;13.804;2022-11-20T08:38:50;9.30;99.90
28608;DHT22;15802;45.654;13.804;2022-11-20T08:41:16;9.30;99.90
28608;DHT22;15802;45.654;13.804;2022-11-20T08:43:50;9.30;99.90
28608;DHT22;15802;45.654;13.804;2022-11-20T08:46:16;9.30;99.90
28608;DHT22;15802;45.654;13.804;2022-11-20T08:48:42;9.30;99.90
28608;DHT22;15802;45.654;13.804;2022-11-20T08:51:11;9.30;99.90
28608;DHT22;15802;45.654;13.804;2022-11-20T08:53:39;9.40;99.90
28608;DHT22;15802;45.654;13.804;2022-11-20T08:56:05;9.40;99.90
28608;DHT22;15802;45.654;13.804;2022-11-20T08:58:31;9.30;99.90
28608;DHT22;15802;45.654;13.804;2022-11-20T09:00:56;9.30;99.90
28608;DHT22;15802;45.654;13.804;2022-11-20T09:03:22;9.50;99.90
28608;DHT22;15802;45.654;13.804;2022-11-20T09:05:48;9.50;99.90
28608;DHT22;15802;45.654;13.804;2022-11-20T09:08:16;9.50;99.90
28608;DHT22;15802;45.654;13.804;2022-11-20T09:10:42;9.40;99.90
28608;DHT22;15802;45.654;13.804;2022-11-20T09:13:08;9.50;99.90
28608;DHT22;15802;45.654;13.804;2022-11-20T09:15:34;9.40;99.90
28608;DHT22;15802;45.654;13.804;2022-11-20T09:18:01;9.40;99.90
28608;DHT22;15802;45.654;13.804;2022-11-20T09:20:28;9.40;99.90
28608;DHT22;15802;45.654;13.804;2022-11-20T09:22:54;9.40;99.90
28608;DHT22;15802;45.654;13.804;2022-11-20T09:25:20;9.40;99.90
28608;DHT22;15802;45.654;13.804;2022-11-20T09:27:46;9.40;99.90
28608;DHT22;15802;45.654;13.804;2022-11-20T09:30:13;9.50;99.90
28608;DHT22;15802;45.654;13.804;2022-11-20T09:32:39;9.50;99.90
28608;DHT22;15802;45.654;13.804;2022-11-20T09:35:05;9.60;99.90
28608;DHT22;15802;45.654;13.804;2022-11-20T09:37:31;9.60;99.90
28608;DHT22;15802;45.654;13.804;2022-11-20T09:39:59;9.60;99.90
28608;DHT22;15802;45.654;13.804;2022-11-20T09:42:30;9.70;99.90
28608;DHT22;15802;45.654;13.804;2022-11-20T09:45:10;9.70;99.90
28608;DHT22;15802;45.654;13.804;2022-11-20T09:47:50;9.70;99.90
28608;DHT22;15802;45.654;13.804;2022-11-20T09:50:35;9.70;99.90
28608;DHT22;15802;45.654;13.804;2022-11-20T09:53:06;9.60;99.90
28608;DHT22;15802;45.654;13.804;2022-11-20T09:55:35;9.60;99.90
28608;DHT22;15802;45.654;13.804;2022-11-20T09:58:01;9.60;99.90
28608;DHT22;15802;45.654;13.804;2022-11-20T10:00:30;9.70;99.90
28608;DHT22;15802;45.654;13.804;2022-11-20T10:03:00;9.70;99.90
28608;DHT22;15802;45.654;13.804;2022-11-20T10:05:36;9.70;99.90
28608;DHT22;15802;45.654;13.804;2022-11-20T10:08:10;9.70;99.90
28608;DHT22;15802;45.654;13.804;2022-11-20T10:10:40;9.70;99.90
28608;DHT22;15802;45.654;13.804;2022-11-20T10:13:27;9.80;99.90
28608;DHT22;15802;45.654;13.804;2022-11-20T10:16:01;9.80;99.90
28608;DHT22;15802;45.654;13.804;2022-11-20T10:18:34;9.90;99.90
28608;DHT22;15802;45.654;13.804;2022-11-20T10:21:08;10.00;99.90
28608;DHT22;15802;45.654;13.804;2022-11-20T10:23:43;10.10;99.90
28608;DHT22;15802;45.654;13.804;2022-11-20T10:26:31;10.10;99.90
28608;DHT22;15802;45.654;13.804;2022-11-20T10:29:04;10.20;99.90
28608;DHT22;15802;45.654;13.804;2022-11-20T10:31:34;10.20;99.90
28608;DHT22;15802;45.654;13.804;2022-11-20T10:34:05;10.20;99.90
28608;DHT22;15802;45.654;13.804;2022-11-20T10:36:37;10.30;99.90
28608;DHT22;15802;45.654;13.804;2022-11-20T10:39:06;10.30;99.90
28608;DHT22;15802;45.654;13.804;2022-11-20T10:41:37;10.30;99.90
28608;DHT22;15802;45.654;13.804;2022-11-20T10:44:05;10.40;99.90
28608;DHT22;15802;45.654;13.804;2022-11-20T10:46:39;10.50;99.90
28608;DHT22;15802;45.654;13.804;2022-11-20T10:49:21;10.40;99.90
28608;DHT22;15802;45.654;13.804;2022-11-20T10:51:52;10.40;99.90
28608;DHT22;15802;45.654;13.804;2022-11-20T10:54:29;10.20;99.90
28608;DHT22;15802;45.654;13.804;2022-11-20T10:57:00;10.20;99.90
28608;DHT22;15802;45.654;13.804;2022-11-20T10:59:35;10.30;99.90
28608;DHT22;15802;45.654;13.804;2022-11-20T11:02:14;10.30;99.90
28608;DHT22;15802;45.654;13.804;2022-11-20T11:04:42;10.30;99.90
28608;DHT22;15802;45.654;13.804;2022-11-20T11:07:12;10.30;99.90
28608;DHT22;15802;45.654;13.804;2022-11-20T11:09:40;10.40;99.90
28608;DHT22;15802;45.654;13.804;2022-11-20T11:12:07;10.40;99.90
28608;DHT22;15802;45.654;13.804;2022-11-20T11:14:49;10.50;99.90
28608;DHT22;15802;45.654;13.804;2022-11-20T11:17:23;10.40;99.90
28608;DHT22;15802;45.654;13.804;2022-11-20T11:20:00;10.60;99.90
28608;DHT22;15802;45.654;13.804;2022-11-20T11:22:28;10.50;99.90
28608;DHT22;15802;45.654;13.804;2022-11-20T11:24:54;10.50;99.90
28608;DHT22;15802;45.654;13.804;2022-11-20T11:27:20;10.60;99.90
28608;DHT22;15802;45.654;13.804;2022-11-20T11:29:46;10.60;99.90
28608;DHT22;15802;45.654;13.804;2022-11-20T11:32:14;10.40;99.90
28608;DHT22;15802;45.654;13.804;2022-11-20T11:34:40;10.50;99.90
28608;DHT22;15802;45.654;13.804;2022-11-20T11:37:11;10.50;99.90
28608;DHT22;15802;45.654;13.804;2022-11-20T11:39:38;10.40;99.90
28608;DHT22;15802;45.654;13.804;2022-11-20T11:42:05;10.30;99.90
28608;DHT22;15802;45.654;13.804;2022-11-20T11:44:32;10.40;99.90
28608;DHT22;15802;45.654;13.804;2022-11-20T11:47:21;10.50;99.90
28608;DHT22;15802;45.654;13.804;2022-11-20T11:49:48;10.30;99.90
28608;DHT22;15802;45.654;13.804;2022-11-20T11:52:18;10.40;99.90
28608;DHT22;15802;45.654;13.804;2022-11-20T11:54:48;10.30;99.90
28608;DHT22;15802;45.654;13.804;2022-11-20T11:57:20;10.20;99.90
28608;DHT22;15802;45.654;13.804;2022-11-20T12:00:06;10.20;99.90
28608;DHT22;15802;45.654;13.804;2022-11-20T12:02:36;10.30;99.90
28608;DHT22;15802;45.654;13.804;2022-11-20T12:05:08;10.30;99.90
28608;DHT22;15802;45.654;13.804;2022-11-20T12:07:41;10.40;99.90
28608;DHT22;15802;45.654;13.804;2022-11-20T12:10:20;10.40;99.90
28608;DHT22;15802;45.654;13.804;2022-11-20T12:12:48;10.40;99.90
28608;DHT22;15802;45.654;13.804;2022-11-20T12:15:19;10.40;99.90
28608;DHT22;15802;45.654;13.804;2022-11-20T12:17:47;10.30;99.90
28608;DHT22;15802;45.654;13.804;2022-11-20T12:20:13;10.40;99.90
28608;DHT22;15802;45.654;13.804;2022-11-20T12:25:25;10.40;99.90
28608;DHT22;15802;45.654;13.804;2022-11-20T12:27:57;10.40;99.90
28608;DHT22;15802;45.654;13.804;2022-11-20T12:30:24;10.40;99.90
28608;DHT22;15802;45.654;13.804;2022-11-20T12:35:42;10.40;99.90
28608;DHT22;15802;45.654;13.804;2022-11-20T12:38:24;10.40;99.90
28608;DHT22;15802;45.654;13.804;2022-11-20T12:43:49;10.40;99.90
28608;DHT22;15802;45.654;13.804;2022-11-20T12:46:40;10.40;99.90
28608;DHT22;15802;45.654;13.804;2022-11-20T12:49:17;10.40;99.90
28608;DHT22;15802;45.654;13.804;2022-11-20T13:00:08;10.40;99.90
28608;DHT22;15802;45.654;13.804;2022-11-20T13:05:24;10.40;99.90
28608;DHT22;15802;45.654;13.804;2022-11-20T13:07:53;10.40;99.90
28608;DHT22;15802;45.654;13.804;2022-11-20T13:10:21;10.40;99.90
28608;DHT22;15802;45.654;13.804;2022-11-20T13:12:54;10.30;99.90
28608;DHT22;15802;45.654;13.804;2022-11-20T13:18:08;10.20;99.90
28608;DHT22;15802;45.654;13.804;2022-11-20T13:20:36;10.20;99.90
28608;DHT22;15802;45.654;13.804;2022-11-20T13:23:06;10.20;99.90
28608;DHT22;15802;45.654;13.804;2022-11-20T13:25:33;10.10;99.90
28608;DHT22;15802;45.654;13.804;2022-11-20T13:28:00;10.10;99.90
28608;DHT22;15802;45.654;13.804;2022-11-20T13:30:26;10.10;99.90
28608;DHT22;15802;45.654;13.804;2022-11-20T13:32:54;10.10;99.90
28608;DHT22;15802;45.654;13.804;2022-11-20T13:35:37;10.00;99.90
28608;DHT22;15802;45.654;13.804;2022-11-20T13:38:11;10.00;99.90
28608;DHT22;15802;45.654;13.804;2022-11-20T13:40:38;10.00;99.90
28608;DHT22;15802;45.654;13.804;2022-11-20T13:43:10;10.10;99.90
28608;DHT22;15802;45.654;13.804;2022-11-20T13:45:40;10.10;99.90
28608;DHT22;15802;45.654;13.804;2022-11-20T13:48:18;10.10;99.90
28608;DHT22;15802;45.654;13.804;2022-11-20T13:50:50;10.20;99.90
28608;DHT22;15802;45.654;13.804;2022-11-20T13:53:22;10.30;99.90
28608;DHT22;15802;45.654;13.804;2022-11-20T13:55:54;10.30;99.90
28608;DHT22;15802;45.654;13.804;2022-11-20T13:58:40;10.30;99.90
28608;DHT22;15802;45.654;13.804;2022-11-20T14:01:10;10.30;99.90
28608;DHT22;15802;45.654;13.804;2022-11-20T14:03:36;10.30;99.90
28608;DHT22;15802;45.654;13.804;2022-11-20T14:06:03;10.30;99.90
28608;DHT22;15802;45.654;13.804;2022-11-20T14:08:35;10.30;99.90
28608;DHT22;15802;45.654;13.804;2022-11-20T14:11:03;10.40;99.90
28608;DHT22;15802;45.654;13.804;2022-11-20T14:13:29;10.40;99.90
28608;DHT22;15802;45.654;13.804;2022-11-20T14:15:56;10.30;99.90
28608;DHT22;15802;45.654;13.804;2022-11-20T14:18:22;10.30;99.90
28608;DHT22;15802;45.654;13.804;2022-11-20T14:20:48;10.30;99.90
28608;DHT22;15802;45.654;13.804;2022-11-20T14:23:22;10.30;99.90
28608;DHT22;15802;45.654;13.804;2022-11-20T14:25:48;10.30;99.90
28608;DHT22;15802;45.654;13.804;2022-11-20T14:28:24;10.20;99.90
28608;DHT22;15802;45.654;13.804;2022-11-20T14:30:51;10.30;99.90
28608;DHT22;15802;45.654;13.804;2022-11-20T14:33:17;10.30;99.90
28608;DHT22;15802;45.654;13.804;2022-11-20T14:35:44;10.20;99.90
28608;DHT22;15802;45.654;13.804;2022-11-20T14:38:11;10.30;99.90
28608;DHT22;15802;45.654;13.804;2022-11-20T14:40:38;10.20;99.90
28608;DHT22;15802;45.654;13.804;2022-11-20T14:45:52;10.10;99.90
28608;DHT22;15802;45.654;13.804;2022-11-20T14:48:22;10.10;99.90
28608;DHT22;15802;45.654;13.804;2022-11-20T14:50:49;10.10;99.90
28608;DHT22;15802;45.654;13.804;2022-11-20T14:53:21;10.00;99.90
28608;DHT22;15802;45.654;13.804;2022-11-20T14:55:53;10.00;99.90
28608;DHT22;15802;45.654;13.804;2022-11-20T14:58:21;10.00;99.90
28608;DHT22;15802;45.654;13.804;2022-11-20T15:01:04;10.00;99.90
28608;DHT22;15802;45.654;13.804;2022-11-20T15:03:32;9.90;99.90
28608;DHT22;15802;45.654;13.804;2022-11-20T15:05:58;9.90;99.90
28608;DHT22;15802;45.654;13.804;2022-11-20T15:08:24;9.80;99.90
28608;DHT22;15802;45.654;13.804;2022-11-20T15:10:50;9.90;99.90
28608;DHT22;15802;45.654;13.804;2022-11-20T15:13:19;9.90;99.90
28608;DHT22;15802;45.654;13.804;2022-11-20T15:15:51;9.90;99.90
28608;DHT22;15802;45.654;13.804;2022-11-20T15:18:19;9.80;99.90
28608;DHT22;15802;45.654;13.804;2022-11-20T15:20:46;9.80;99.90
28608;DHT22;15802;45.654;13.804;2022-11-20T15:23:13;9.70;99.90
28608;DHT22;15802;45.654;13.804;2022-11-20T15:25:40;9.70;99.90
28608;DHT22;15802;45.654;13.804;2022-11-20T15:28:12;9.70;99.90
28608;DHT22;15802;45.654;13.804;2022-11-20T15:30:39;9.70;99.90
28608;DHT22;15802;45.654;13.804;2022-11-20T15:33:07;9.70;99.90
28608;DHT22;15802;45.654;13.804;2022-11-20T15:35:32;9.70;99.90
28608;DHT22;15802;45.654;13.804;2022-11-20T15:37:58;9.60;99.90
28608;DHT22;15802;45.654;13.804;2022-11-20T15:40:24;9.50;99.90
28608;DHT22;15802;45.654;13.804;2022-11-20T15:42:50;9.50;99.90
28608;DHT22;15802;45.654;13.804;2022-11-20T15:48:18;9.50;99.90
28608;DHT22;15802;45.654;13.804;2022-11-20T15:50:49;9.50;99.90
28608;DHT22;15802;45.654;13.804;2022-11-20T15:53:16;9.40;99.90
28608;DHT22;15802;45.654;13.804;2022-11-20T15:55:42;9.40;99.90
28608;DHT22;15802;45.654;13.804;2022-11-20T15:58:07;9.40;99.90
28608;DHT22;15802;45.654;13.804;2022-11-20T16:00:33;9.40;99.90
28608;DHT22;15802;45.654;13.804;2022-11-20T16:02:59;9.40;99.90
28608;DHT22;15802;45.654;13.804;2022-11-20T16:05:27;9.40;99.90